sensor_id;sensor_type;location;lat;lon;timestamp;pressure;altitude;pressure_sealevel;temperature;humidity
49541;BME280;35432;43.566;1.398;2023-01-26T00:02:09;100845.38;;;3.20;76.24
49541;BME280;35432;43.566;1.398;2023-01-26T00:04:35;100840.13;;;3.18;76.43
49541;BME280;35432;43.566;1.398;2023-01-26T00:07:00;100841.84;;;3.18;76.28
49541;BME280;35432;43.566;1.398;2023-01-26T00:09:25;100835.69;;;3.15;76.31
49541;BME280;35432;43.566;1.398;2023-01-26T00:11:51;100832.22;;;3.15;77.08
49541;BME280;35432;43.566;1.398;2023-01-26T00:14:16;100824.41;;;3.15;76.89
49541;BME280;35432;43.566;1.398;2023-01-26T00:16:42;100811.34;;;3.13;76.57
49541;BME280;35432;43.566;1.398;2023-01-26T00:19:07;100809.63;;;3.14;76.37
49541;BME280;35432;43.566;1.398;2023-01-26T00:21:33;100804.47;;;3.15;76.41
49541;BME280;35432;43.566;1.398;2023-01-26T00:23:58;100805.31;;;3.14;76.39
49541;BME280;35432;43.566;1.398;2023-01-26T00:26:25;100799.22;;;3.14;76.95
49541;BME280;35432;43.566;1.398;2023-01-26T00:28:52;100792.22;;;3.13;76.59
49541;BME280;35432;43.566;1.398;2023-01-26T00:31:23;100779.22;;;3.13;76.83
49541;BME280;35432;43.566;1.398;2023-01-26T00:33:49;100783.53;;;3.12;76.79
49541;BME280;35432;43.566;1.398;2023-01-26T00:36:15;100777.41;;;3.10;76.81
49541;BME280;35432;43.566;1.398;2023-01-26T00:38:41;100771.25;;;3.08;76.58
49541;BME280;35432;43.566;1.398;2023-01-26T00:41:06;100765.06;;;3.05;76.37
49541;BME280;35432;43.566;1.398;2023-01-26T00:43:32;100759.69;;;3.00;76.76
49541;BME280;35432;43.566;1.398;2023-01-26T00:45:58;100759.59;;;2.97;76.61
49541;BME280;35432;43.566;1.398;2023-01-26T00:48:23;100756.00;;;2.93;76.19
49541;BME280;35432;43.566;1.398;2023-01-26T00:50:49;100755.94;;;2.92;76.75
49541;BME280;35432;43.566;1.398;2023-01-26T00:53:15;100752.47;;;2.91;76.89
49541;BME280;35432;43.566;1.398;2023-01-26T00:55:41;100741.09;;;2.89;76.53
49541;BME280;35432;43.566;1.398;2023-01-26T00:58:07;100740.16;;;2.87;76.13
49541;BME280;35432;43.566;1.398;2023-01-26T01:00:34;100738.34;;;2.84;76.19
49541;BME280;35432;43.566;1.398;2023-01-26T01:03:00;100739.97;;;2.81;76.31
49541;BME280;35432;43.566;1.398;2023-01-26T01:05:28;100745.94;;;2.78;76.41
49541;BME280;35432;43.566;1.398;2023-01-26T01:07:54;100738.00;;;2.75;76.37
49541;BME280;35432;43.566;1.398;2023-01-26T01:10:20;100741.44;;;2.74;76.17
49541;BME280;35432;43.566;1.398;2023-01-26T01:12:45;100735.41;;;2.75;76.37
49541;BME280;35432;43.566;1.398;2023-01-26T01:15:11;100737.19;;;2.76;76.43
49541;BME280;35432;43.566;1.398;2023-01-26T01:17:37;100733.81;;;2.79;76.36
49541;BME280;35432;43.566;1.398;2023-01-26T01:20:03;100739.97;;;2.81;76.60
49541;BME280;35432;43.566;1.398;2023-01-26T01:22:30;100736.59;;;2.83;77.00
49541;BME280;35432;43.566;1.398;2023-01-26T01:24:56;100735.75;;;2.84;76.75
49541;BME280;35432;43.566;1.398;2023-01-26T01:27:21;100737.63;;;2.89;76.79
49541;BME280;35432;43.566;1.398;2023-01-26T01:29:48;100730.75;;;2.91;77.09
49541;BME280;35432;43.566;1.398;2023-01-26T01:32:14;100734.28;;;2.93;76.58
49541;BME280;35432;43.566;1.398;2023-01-26T01:34:39;100735.19;;;2.93;76.99
49541;BME280;35432;43.566;1.398;2023-01-26T01:37:05;100730.09;;;2.96;76.45
49541;BME280;35432;43.566;1.398;2023-01-26T01:39:30;100728.38;;;2.97;76.90
49541;BME280;35432;43.566;1.398;2023-01-26T01:41:56;100729.28;;;2.99;76.54
49541;BME280;35432;43.566;1.398;2023-01-26T01:44:23;100731.91;;;2.99;76.93
49541;BME280;35432;43.566;1.398;2023-01-26T01:49:33;100732.81;;;2.99;76.37
49541;BME280;35432;43.566;1.398;2023-01-26T01:52:02;100727.63;;;3.01;76.87
49541;BME280;35432;43.566;1.398;2023-01-26T01:54:36;100736.41;;;3.03;77.09
49541;BME280;35432;43.566;1.398;2023-01-26T01:57:07;100734.72;;;3.05;76.46
49541;BME280;35432;43.566;1.398;2023-01-26T01:59:41;100736.50;;;3.06;76.36
49541;BME280;35432;43.566;1.398;2023-01-26T02:02:08;100731.31;;;3.06;76.79
49541;BME280;35432;43.566;1.398;2023-01-26T02:04:35;100738.28;;;3.07;76.31
49541;BME280;35432;43.566;1.398;2023-01-26T02:07:01;100744.34;;;3.08;76.82
49541;BME280;35432;43.566;1.398;2023-01-26T02:09:33;100738.28;;;3.07;76.27
49541;BME280;35432;43.566;1.398;2023-01-26T02:12:21;100742.56;;;3.07;76.96
49541;BME280;35432;43.566;1.398;2023-01-26T02:14:49;100743.47;;;3.07;76.59
49541;BME280;35432;43.566;1.398;2023-01-26T02:17:16;100743.47;;;3.07;76.46
49541;BME280;35432;43.566;1.398;2023-01-26T02:23:06;100739.09;;;3.06;76.09
49541;BME280;35432;43.566;1.398;2023-01-26T02:28:12;100735.81;;;3.12;76.56
49541;BME280;35432;43.566;1.398;2023-01-26T02:30:37;100728.97;;;3.14;76.71
49541;BME280;35432;43.566;1.398;2023-01-26T02:33:03;100729.81;;;3.14;76.41
49541;BME280;35432;43.566;1.398;2023-01-26T02:35:28;100731.59;;;3.15;76.70
49541;BME280;35432;43.566;1.398;2023-01-26T02:37:54;100726.47;;;3.17;76.86
49541;BME280;35432;43.566;1.398;2023-01-26T02:42:58;100733.38;;;3.16;76.34
49541;BME280;35432;43.566;1.398;2023-01-26T02:45:25;100721.19;;;3.15;76.87
49541;BME280;35432;43.566;1.398;2023-01-26T02:47:50;100728.22;;;3.18;76.83
49541;BME280;35432;43.566;1.398;2023-01-26T02:50:16;100726.59;;;3.22;76.64
49541;BME280;35432;43.566;1.398;2023-01-26T02:52:41;100731.88;;;3.23;77.02
49541;BME280;35432;43.566;1.398;2023-01-26T02:55:07;100722.44;;;3.27;76.54
49541;BME280;35432;43.566;1.398;2023-01-26T02:58:00;100721.53;;;3.26;76.34
49541;BME280;35432;43.566;1.398;2023-01-26T03:00:31;100723.28;;;3.26;76.13
49541;BME280;35432;43.566;1.398;2023-01-26T03:03:02;100720.72;;;3.27;76.89
49541;BME280;35432;43.566;1.398;2023-01-26T03:05:31;100714.63;;;3.27;76.27
49541;BME280;35432;43.566;1.398;2023-01-26T03:07:56;100716.41;;;3.28;76.79
49541;BME280;35432;43.566;1.398;2023-01-26T03:10:22;100706.00;;;3.28;76.87
49541;BME280;35432;43.566;1.398;2023-01-26T03:12:49;100703.41;;;3.28;76.63
49541;BME280;35432;43.566;1.398;2023-01-26T03:15:14;100696.41;;;3.27;76.52
49541;BME280;35432;43.566;1.398;2023-01-26T03:18:07;100697.25;;;3.26;76.54
49541;BME280;35432;43.566;1.398;2023-01-26T03:20:51;100699.72;;;3.23;76.63
49541;BME280;35432;43.566;1.398;2023-01-26T03:23:35;100687.63;;;3.23;76.45
49541;BME280;35432;43.566;1.398;2023-01-26T03:26:19;100693.59;;;3.21;76.46
49541;BME280;35432;43.566;1.398;2023-01-26T03:29:03;100678.03;;;3.22;76.59
49541;BME280;35432;43.566;1.398;2023-01-26T03:31:29;100674.44;;;3.19;76.60
49541;BME280;35432;43.566;1.398;2023-01-26T03:33:54;100668.38;;;3.18;77.09
49541;BME280;35432;43.566;1.398;2023-01-26T03:36:19;100680.53;;;3.19;77.01
49541;BME280;35432;43.566;1.398;2023-01-26T03:38:45;100680.53;;;3.19;76.50
49541;BME280;35432;43.566;1.398;2023-01-26T03:41:11;100677.97;;;3.21;76.37
49541;BME280;35432;43.566;1.398;2023-01-26T03:43:55;100674.44;;;3.19;77.03
49541;BME280;35432;43.566;1.398;2023-01-26T03:46:39;100676.22;;;3.20;76.83
49541;BME280;35432;43.566;1.398;2023-01-26T03:49:23;100662.25;;;3.18;76.46
49541;BME280;35432;43.566;1.398;2023-01-26T03:52:07;100672.78;;;3.21;77.00
49541;BME280;35432;43.566;1.398;2023-01-26T03:54:51;100663.34;;;3.24;77.32
49541;BME280;35432;43.566;1.398;2023-01-26T03:57:35;100656.41;;;3.25;77.07
49541;BME280;35432;43.566;1.398;2023-01-26T04:00:00;100658.25;;;3.27;76.49
49541;BME280;35432;43.566;1.398;2023-01-26T04:02:26;100653.09;;;3.29;76.86
49541;BME280;35432;43.566;1.398;2023-01-26T04:05:10;100656.56;;;3.29;77.08
49541;BME280;35432;43.566;1.398;2023-01-26T04:07:53;100656.56;;;3.29;76.61
49541;BME280;35432;43.566;1.398;2023-01-26T04:10:37;100658.34;;;3.30;77.13
49541;BME280;35432;43.566;1.398;2023-01-26T04:13:03;100647.06;;;3.30;76.72
49541;BME280;35432;43.566;1.398;2023-01-26T04:15:47;100644.47;;;3.30;76.58
49541;BME280;35432;43.566;1.398;2023-01-26T04:18:32;100641.78;;;3.28;76.90
49541;BME280;35432;43.566;1.398;2023-01-26T04:21:16;100631.34;;;3.27;76.49
49541;BME280;35432;43.566;1.398;2023-01-26T04:24:02;100632.19;;;3.26;77.01
49541;BME280;35432;43.566;1.398;2023-01-26T04:26:34;100633.13;;;3.28;76.98
49541;BME280;35432;43.566;1.398;2023-01-26T04:29:04;100619.25;;;3.29;76.75
49541;BME280;35432;43.566;1.398;2023-01-26T04:31:30;100624.50;;;3.30;76.86
49541;BME280;35432;43.566;1.398;2023-01-26T04:33:55;100622.78;;;3.31;76.79
49541;BME280;35432;43.566;1.398;2023-01-26T04:36:20;100626.25;;;3.30;76.74
49541;BME280;35432;43.566;1.398;2023-01-26T04:38:46;100612.38;;;3.31;76.53
49541;BME280;35432;43.566;1.398;2023-01-26T04:41:12;100616.75;;;3.32;76.58
49541;BME280;35432;43.566;1.398;2023-01-26T04:43:37;100610.72;;;3.33;76.56
49541;BME280;35432;43.566;1.398;2023-01-26T04:46:05;100610.72;;;3.33;76.54
49541;BME280;35432;43.566;1.398;2023-01-26T04:48:32;100608.19;;;3.36;76.19
49541;BME280;35432;43.566;1.398;2023-01-26T04:51:01;100604.75;;;3.37;76.91
49541;BME280;35432;43.566;1.398;2023-01-26T04:53:27;100600.47;;;3.39;77.14
49541;BME280;35432;43.566;1.398;2023-01-26T04:55:54;100600.47;;;3.39;76.36
49541;BME280;35432;43.566;1.398;2023-01-26T04:58:19;100594.44;;;3.40;76.60
49541;BME280;35432;43.566;1.398;2023-01-26T05:00:50;100590.13;;;3.41;76.38
49541;BME280;35432;43.566;1.398;2023-01-26T05:03:15;100585.78;;;3.41;76.87
49541;BME280;35432;43.566;1.398;2023-01-26T05:05:41;100585.84;;;3.43;76.67
49541;BME280;35432;43.566;1.398;2023-01-26T05:08:06;100588.47;;;3.44;76.62
49541;BME280;35432;43.566;1.398;2023-01-26T05:10:32;100582.50;;;3.47;76.86
49541;BME280;35432;43.566;1.398;2023-01-26T05:12:58;100579.91;;;3.49;76.45
49541;BME280;35432;43.566;1.398;2023-01-26T05:15:23;100578.16;;;3.48;76.58
49541;BME280;35432;43.566;1.398;2023-01-26T05:17:49;100573.78;;;3.47;76.47
49541;BME280;35432;43.566;1.398;2023-01-26T05:20:14;100578.13;;;3.46;76.26
49541;BME280;35432;43.566;1.398;2023-01-26T05:22:40;100575.44;;;3.43;76.67
49541;BME280;35432;43.566;1.398;2023-01-26T05:25:06;100568.41;;;3.40;76.75
49541;BME280;35432;43.566;1.398;2023-01-26T05:27:32;100563.19;;;3.40;76.83
49541;BME280;35432;43.566;1.398;2023-01-26T05:29:57;100567.56;;;3.41;76.61
49541;BME280;35432;43.566;1.398;2023-01-26T05:32:26;100561.44;;;3.39;76.26
49541;BME280;35432;43.566;1.398;2023-01-26T05:34:52;100558.81;;;3.39;76.63
49541;BME280;35432;43.566;1.398;2023-01-26T05:37:17;100549.19;;;3.37;76.25
49541;BME280;35432;43.566;1.398;2023-01-26T05:39:43;100565.72;;;3.37;76.70
49541;BME280;35432;43.566;1.398;2023-01-26T05:42:09;100556.13;;;3.36;77.04
49541;BME280;35432;43.566;1.398;2023-01-26T05:44:35;100548.31;;;3.36;76.78
49541;BME280;35432;43.566;1.398;2023-01-26T05:47:00;100548.31;;;3.36;76.94
49541;BME280;35432;43.566;1.398;2023-01-26T05:49:26;100550.09;;;3.37;77.14
49541;BME280;35432;43.566;1.398;2023-01-26T05:51:51;100544.88;;;3.37;76.99
49541;BME280;35432;43.566;1.398;2023-01-26T05:54:17;100542.19;;;3.34;76.79
49541;BME280;35432;43.566;1.398;2023-01-26T05:56:42;100542.03;;;3.29;76.74
49541;BME280;35432;43.566;1.398;2023-01-26T05:59:07;100546.38;;;3.29;77.38
49541;BME280;35432;43.566;1.398;2023-01-26T06:01:33;100538.59;;;3.30;76.85
49541;BME280;35432;43.566;1.398;2023-01-26T06:03:58;100536.06;;;3.32;77.19
49541;BME280;35432;43.566;1.398;2023-01-26T06:06:24;100534.28;;;3.31;77.41
49541;BME280;35432;43.566;1.398;2023-01-26T06:08:49;100526.50;;;3.33;77.36
49541;BME280;35432;43.566;1.398;2023-01-26T06:11:15;100530.94;;;3.35;77.47
49541;BME280;35432;43.566;1.398;2023-01-26T06:13:40;100524.00;;;3.36;77.09
49541;BME280;35432;43.566;1.398;2023-01-26T06:16:06;100522.28;;;3.36;76.99
49541;BME280;35432;43.566;1.398;2023-01-26T06:18:31;100525.81;;;3.38;77.10
49541;BME280;35432;43.566;1.398;2023-01-26T06:21:00;100518.06;;;3.40;77.02
49541;BME280;35432;43.566;1.398;2023-01-26T06:23:26;100516.34;;;3.40;77.33
49541;BME280;35432;43.566;1.398;2023-01-26T06:25:52;100519.78;;;3.39;77.35
49541;BME280;35432;43.566;1.398;2023-01-26T06:28:17;100517.22;;;3.41;77.04
49541;BME280;35432;43.566;1.398;2023-01-26T06:30:45;100524.16;;;3.40;76.96
49541;BME280;35432;43.566;1.398;2023-01-26T06:33:11;100519.88;;;3.42;76.95
49541;BME280;35432;43.566;1.398;2023-01-26T06:35:36;100514.72;;;3.44;77.36
49541;BME280;35432;43.566;1.398;2023-01-26T06:38:02;100517.31;;;3.44;76.84
49541;BME280;35432;43.566;1.398;2023-01-26T06:40:28;100516.41;;;3.43;77.41
49541;BME280;35432;43.566;1.398;2023-01-26T06:42:53;100512.91;;;3.41;77.30
49541;BME280;35432;43.566;1.398;2023-01-26T06:45:19;100513.78;;;3.42;77.08
49541;BME280;35432;43.566;1.398;2023-01-26T06:47:49;100503.22;;;3.37;76.51
49541;BME280;35432;43.566;1.398;2023-01-26T06:50:18;100512.72;;;3.35;77.11
49541;BME280;35432;43.566;1.398;2023-01-26T06:52:46;100504.75;;;3.30;77.40
49541;BME280;35432;43.566;1.398;2023-01-26T06:55:19;100503.94;;;3.32;76.94
49541;BME280;35432;43.566;1.398;2023-01-26T06:57:46;100502.22;;;3.32;77.12
49541;BME280;35432;43.566;1.398;2023-01-26T07:00:12;100504.81;;;3.32;77.46
49541;BME280;35432;43.566;1.398;2023-01-26T07:02:38;100501.31;;;3.32;77.26
49541;BME280;35432;43.566;1.398;2023-01-26T07:05:04;100505.75;;;3.34;77.22
49541;BME280;35432;43.566;1.398;2023-01-26T07:07:30;100503.16;;;3.34;77.02
49541;BME280;35432;43.566;1.398;2023-01-26T07:09:58;100500.56;;;3.36;77.67
49541;BME280;35432;43.566;1.398;2023-01-26T07:12:23;100496.34;;;3.39;77.52
49541;BME280;35432;43.566;1.398;2023-01-26T07:14:49;100498.13;;;3.40;77.23
49541;BME280;35432;43.566;1.398;2023-01-26T07:17:16;100499.03;;;3.42;77.67
49541;BME280;35432;43.566;1.398;2023-01-26T07:19:41;100499.13;;;3.45;77.52
49541;BME280;35432;43.566;1.398;2023-01-26T07:22:07;100501.81;;;3.49;77.59
49541;BME280;35432;43.566;1.398;2023-01-26T07:24:32;100496.59;;;3.49;77.42
49541;BME280;35432;43.566;1.398;2023-01-26T07:26:58;100500.09;;;3.49;77.38
49541;BME280;35432;43.566;1.398;2023-01-26T07:29:23;100498.41;;;3.50;77.59
49541;BME280;35432;43.566;1.398;2023-01-26T07:31:49;100499.25;;;3.50;77.15
49541;BME280;35432;43.566;1.398;2023-01-26T07:34:14;100506.22;;;3.51;77.24
49541;BME280;35432;43.566;1.398;2023-01-26T07:36:40;100505.41;;;3.52;77.85
49541;BME280;35432;43.566;1.398;2023-01-26T07:39:06;100508.97;;;3.56;77.63
49541;BME280;35432;43.566;1.398;2023-01-26T07:41:31;100502.09;;;3.58;77.41
49541;BME280;35432;43.566;1.398;2023-01-26T07:43:57;100505.56;;;3.58;77.23
49541;BME280;35432;43.566;1.398;2023-01-26T07:46:22;100508.22;;;3.60;77.46
49541;BME280;35432;43.566;1.398;2023-01-26T07:48:49;100504.84;;;3.63;76.98
49541;BME280;35432;43.566;1.398;2023-01-26T07:51:14;100504.00;;;3.65;77.37
49541;BME280;35432;43.566;1.398;2023-01-26T07:53:39;100507.53;;;3.66;77.04
49541;BME280;35432;43.566;1.398;2023-01-26T07:56:12;100514.44;;;3.65;76.94
49541;BME280;35432;43.566;1.398;2023-01-26T07:58:38;100513.44;;;3.62;76.75
49541;BME280;35432;43.566;1.398;2023-01-26T08:01:13;100503.78;;;3.56;76.44
49541;BME280;35432;43.566;1.398;2023-01-26T08:03:40;100512.44;;;3.56;77.33
49541;BME280;35432;43.566;1.398;2023-01-26T08:06:06;100508.13;;;3.57;77.13
49541;BME280;35432;43.566;1.398;2023-01-26T08:08:32;100505.53;;;3.57;77.21
49541;BME280;35432;43.566;1.398;2023-01-26T08:10:58;100507.28;;;3.58;77.47
49541;BME280;35432;43.566;1.398;2023-01-26T08:13:26;100515.19;;;3.61;77.79
49541;BME280;35432;43.566;1.398;2023-01-26T08:15:52;100507.38;;;3.61;76.97
49541;BME280;35432;43.566;1.398;2023-01-26T08:18:18;100507.47;;;3.64;77.50
49541;BME280;35432;43.566;1.398;2023-01-26T08:20:51;100509.16;;;3.62;76.88
49541;BME280;35432;43.566;1.398;2023-01-26T08:23:16;100510.81;;;3.60;77.38
49541;BME280;35432;43.566;1.398;2023-01-26T08:25:42;100507.38;;;3.61;77.53
49541;BME280;35432;43.566;1.398;2023-01-26T08:28:07;100509.09;;;3.61;77.17
49541;BME280;35432;43.566;1.398;2023-01-26T08:30:33;100509.97;;;3.61;77.16
49541;BME280;35432;43.566;1.398;2023-01-26T08:32:58;100505.63;;;3.60;77.40
49541;BME280;35432;43.566;1.398;2023-01-26T08:35:24;100515.19;;;3.61;77.22
49541;BME280;35432;43.566;1.398;2023-01-26T08:37:49;100504.78;;;3.61;77.19
49541;BME280;35432;43.566;1.398;2023-01-26T08:40:15;100504.00;;;3.65;77.38
49541;BME280;35432;43.566;1.398;2023-01-26T08:42:40;100506.75;;;3.70;77.41
49541;BME280;35432;43.566;1.398;2023-01-26T08:45:06;100507.69;;;3.73;77.52
49541;BME280;35432;43.566;1.398;2023-01-26T08:47:32;100513.03;;;3.77;77.12
49541;BME280;35432;43.566;1.398;2023-01-26T08:49:57;100514.88;;;3.81;77.30
49541;BME280;35432;43.566;1.398;2023-01-26T08:52:22;100514.19;;;3.88;77.18
49541;BME280;35432;43.566;1.398;2023-01-26T08:54:48;100514.28;;;3.91;77.22
49541;BME280;35432;43.566;1.398;2023-01-26T08:57:13;100517.78;;;3.93;76.70
49541;BME280;35432;43.566;1.398;2023-01-26T08:59:39;100515.19;;;3.93;76.80
49541;BME280;35432;43.566;1.398;2023-01-26T09:02:04;100509.13;;;3.94;76.74
49541;BME280;35432;43.566;1.398;2023-01-26T09:04:30;100517.03;;;3.97;77.19
49541;BME280;35432;43.566;1.398;2023-01-26T09:06:55;100512.78;;;3.99;77.03
49541;BME280;35432;43.566;1.398;2023-01-26T09:09:21;100514.53;;;4.00;77.08
49541;BME280;35432;43.566;1.398;2023-01-26T09:11:46;100515.47;;;4.02;76.69
49541;BME280;35432;43.566;1.398;2023-01-26T09:14:11;100504.22;;;4.05;76.79
49541;BME280;35432;43.566;1.398;2023-01-26T09:16:37;100506.94;;;4.10;77.10
49541;BME280;35432;43.566;1.398;2023-01-26T09:19:02;100501.75;;;4.10;76.96
49541;BME280;35432;43.566;1.398;2023-01-26T09:21:29;100504.47;;;4.14;76.81
49541;BME280;35432;43.566;1.398;2023-01-26T09:23:55;100495.84;;;4.17;76.29
49541;BME280;35432;43.566;1.398;2023-01-26T09:26:20;100497.66;;;4.21;76.50
49541;BME280;35432;43.566;1.398;2023-01-26T09:28:51;100502.22;;;4.28;76.82
49541;BME280;35432;43.566;1.398;2023-01-26T09:31:16;100495.34;;;4.32;77.05
49541;BME280;35432;43.566;1.398;2023-01-26T09:33:42;100500.75;;;4.40;76.90
49541;BME280;35432;43.566;1.398;2023-01-26T09:36:09;100498.38;;;4.49;76.62
49541;BME280;35432;43.566;1.398;2023-01-26T09:38:35;100494.28;;;4.59;76.47
49541;BME280;35432;43.566;1.398;2023-01-26T09:43:53;100489.28;;;4.70;75.92
49541;BME280;35432;43.566;1.398;2023-01-26T09:46:45;100490.25;;;4.73;75.54
49541;BME280;35432;43.566;1.398;2023-01-26T09:49:23;100484.25;;;4.76;76.05
49541;BME280;35432;43.566;1.398;2023-01-26T09:54:54;100489.72;;;4.88;76.14
49541;BME280;35432;43.566;1.398;2023-01-26T09:57:31;100489.00;;;4.94;76.19
49541;BME280;35432;43.566;1.398;2023-01-26T10:00:18;100493.38;;;4.95;75.04
49541;BME280;35432;43.566;1.398;2023-01-26T10:05:42;100491.78;;;5.02;74.64
49541;BME280;35432;43.566;1.398;2023-01-26T10:08:10;100497.09;;;5.07;75.52
49541;BME280;35432;43.566;1.398;2023-01-26T10:10:43;100504.03;;;5.06;75.64
49541;BME280;35432;43.566;1.398;2023-01-26T10:13:15;100505.75;;;5.04;74.98
49541;BME280;35432;43.566;1.398;2023-01-26T10:15:42;100509.25;;;5.06;75.65
49541;BME280;35432;43.566;1.398;2023-01-26T10:18:26;100505.81;;;5.07;74.91
49541;BME280;35432;43.566;1.398;2023-01-26T10:20:55;100507.75;;;5.17;75.42
49541;BME280;35432;43.566;1.398;2023-01-26T10:23:27;100501.84;;;5.25;75.20
49541;BME280;35432;43.566;1.398;2023-01-26T10:26:00;100504.44;;;5.25;75.15
49541;BME280;35432;43.566;1.398;2023-01-26T10:28:30;100501.00;;;5.26;75.36
49541;BME280;35432;43.566;1.398;2023-01-26T10:31:01;100496.63;;;5.26;75.29
49541;BME280;35432;43.566;1.398;2023-01-26T10:33:35;100492.31;;;5.27;74.97
49541;BME280;35432;43.566;1.398;2023-01-26T10:36:04;100494.13;;;5.31;75.48
49541;BME280;35432;43.566;1.398;2023-01-26T10:40:59;100484.66;;;5.36;75.55
49541;BME280;35432;43.566;1.398;2023-01-26T10:43:25;100482.09;;;5.39;75.23
49541;BME280;35432;43.566;1.398;2023-01-26T10:45:51;100480.34;;;5.38;75.09
49541;BME280;35432;43.566;1.398;2023-01-26T10:50:45;100481.03;;;5.29;74.98
49541;BME280;35432;43.566;1.398;2023-01-26T10:53:17;100476.66;;;5.27;74.81
49541;BME280;35432;43.566;1.398;2023-01-26T10:55:43;100481.03;;;5.29;74.51
49541;BME280;35432;43.566;1.398;2023-01-26T11:01:03;100470.53;;;5.26;74.49
49541;BME280;35432;43.566;1.398;2023-01-26T11:03:28;100462.69;;;5.25;75.13
49541;BME280;35432;43.566;1.398;2023-01-26T11:06:05;100459.09;;;5.20;73.89
49541;BME280;35432;43.566;1.398;2023-01-26T11:08:34;100456.38;;;5.15;74.96
49541;BME280;35432;43.566;1.398;2023-01-26T11:10:59;100455.41;;;5.11;75.02
49541;BME280;35432;43.566;1.398;2023-01-26T11:13:25;100451.91;;;5.09;74.43
49541;BME280;35432;43.566;1.398;2023-01-26T11:16:21;100443.16;;;5.07;72.52
49541;BME280;35432;43.566;1.398;2023-01-26T11:18:56;100434.88;;;5.27;73.89
49541;BME280;35432;43.566;1.398;2023-01-26T11:24:12;100439.34;;;5.79;74.77
49541;BME280;35432;43.566;1.398;2023-01-26T11:57:24;100363.69;;;7.96;67.35
49541;BME280;35432;43.566;1.398;2023-01-26T12:00:18;100362.94;;;8.11;69.38
49541;BME280;35432;43.566;1.398;2023-01-26T12:02:55;100351.69;;;8.28;69.59
49541;BME280;35432;43.566;1.398;2023-01-26T12:05:44;100352.59;;;8.36;67.92
49541;BME280;35432;43.566;1.398;2023-01-26T12:08:19;100353.53;;;8.43;67.75
49541;BME280;35432;43.566;1.398;2023-01-26T12:10:54;100352.66;;;8.41;68.87
49541;BME280;35432;43.566;1.398;2023-01-26T12:13:38;100348.19;;;8.30;67.37
49541;BME280;35432;43.566;1.398;2023-01-26T12:16:13;100342.06;;;8.28;68.26
49541;BME280;35432;43.566;1.398;2023-01-26T12:18:50;100341.16;;;8.23;69.61
49541;BME280;35432;43.566;1.398;2023-01-26T12:21:19;100342.84;;;8.15;69.74
49541;BME280;35432;43.566;1.398;2023-01-26T12:23:56;100346.22;;;7.98;68.18
49541;BME280;35432;43.566;1.398;2023-01-26T12:26:27;100342.75;;;8.02;69.64
49541;BME280;35432;43.566;1.398;2023-01-26T12:29:08;100335.78;;;8.06;67.50
49541;BME280;35432;43.566;1.398;2023-01-26T12:34:13;100320.97;;;8.10;69.35
49541;BME280;35432;43.566;1.398;2023-01-26T12:42:21;100319.91;;;7.86;67.43
49541;BME280;35432;43.566;1.398;2023-01-26T12:44:54;100312.75;;;7.66;66.52
49541;BME280;35432;43.566;1.398;2023-01-26T12:47:37;100315.34;;;7.61;69.62
49541;BME280;35432;43.566;1.398;2023-01-26T12:50:20;100310.88;;;7.53;69.33
49541;BME280;35432;43.566;1.398;2023-01-26T12:55:17;100316.88;;;7.39;70.03
49541;BME280;35432;43.566;1.398;2023-01-26T12:57:49;100315.81;;;7.22;69.48
49541;BME280;35432;43.566;1.398;2023-01-26T13:00:21;100312.16;;;7.07;69.71
49541;BME280;35432;43.566;1.398;2023-01-26T13:02:51;100313.84;;;6.99;70.43
49541;BME280;35432;43.566;1.398;2023-01-26T13:05:28;100313.78;;;6.93;70.20
49541;BME280;35432;43.566;1.398;2023-01-26T13:07:54;100311.91;;;6.85;70.95
49541;BME280;35432;43.566;1.398;2023-01-26T13:10:25;100307.47;;;6.77;71.42
49541;BME280;35432;43.566;1.398;2023-01-26T13:13:00;100301.28;;;6.70;71.11
49541;BME280;35432;43.566;1.398;2023-01-26T13:15:30;100313.41;;;6.63;70.81
49541;BME280;35432;43.566;1.398;2023-01-26T13:18:01;100299.41;;;6.59;71.27
49541;BME280;35432;43.566;1.398;2023-01-26T13:20:28;100300.25;;;6.58;71.39
49541;BME280;35432;43.566;1.398;2023-01-26T13:23:41;100299.34;;;6.56;69.39
49541;BME280;35432;43.566;1.398;2023-01-26T13:26:23;100300.22;;;6.55;69.81
49541;BME280;35432;43.566;1.398;2023-01-26T13:28:50;100294.13;;;6.56;71.79
49541;BME280;35432;43.566;1.398;2023-01-26T13:31:32;100298.47;;;6.54;70.43
49541;BME280;35432;43.566;1.398;2023-01-26T13:34:00;100281.94;;;6.58;71.64
49541;BME280;35432;43.566;1.398;2023-01-26T13:36:31;100286.34;;;6.61;71.76
49541;BME280;35432;43.566;1.398;2023-01-26T13:39:02;100289.84;;;6.63;71.52
49541;BME280;35432;43.566;1.398;2023-01-26T13:41:29;100288.13;;;6.64;72.15
49541;BME280;35432;43.566;1.398;2023-01-26T13:44:04;100294.13;;;6.56;70.26
49541;BME280;35432;43.566;1.398;2023-01-26T13:46:42;100294.94;;;6.52;70.67
49541;BME280;35432;43.566;1.398;2023-01-26T13:49:27;100296.59;;;6.45;68.71
49541;BME280;35432;43.566;1.398;2023-01-26T13:52:01;100291.38;;;6.45;71.03
49541;BME280;35432;43.566;1.398;2023-01-26T13:54:27;100301.75;;;6.39;71.06
49541;BME280;35432;43.566;1.398;2023-01-26T13:57:06;100299.88;;;6.30;69.01
49541;BME280;35432;43.566;1.398;2023-01-26T13:59:32;100294.69;;;6.32;71.51
49541;BME280;35432;43.566;1.398;2023-01-26T14:01:58;100301.66;;;6.31;71.48
49541;BME280;35432;43.566;1.398;2023-01-26T14:04:31;100299.03;;;6.31;70.68
49541;BME280;35432;43.566;1.398;2023-01-26T14:09:33;100294.78;;;6.38;71.70
49541;BME280;35432;43.566;1.398;2023-01-26T14:12:03;100293.97;;;6.44;71.66
49541;BME280;35432;43.566;1.398;2023-01-26T14:14:32;100295.81;;;6.51;71.29
49541;BME280;35432;43.566;1.398;2023-01-26T14:16:58;100289.78;;;6.57;70.55
49541;BME280;35432;43.566;1.398;2023-01-26T14:19:25;100288.13;;;6.64;71.04
49541;BME280;35432;43.566;1.398;2023-01-26T14:24:37;100283.03;;;6.76;69.68
49541;BME280;35432;43.566;1.398;2023-01-26T14:27:32;100279.63;;;6.82;67.82
49541;BME280;35432;43.566;1.398;2023-01-26T14:29:59;100278.91;;;6.97;70.69